createdAt,value
2022-08-12T00:02:02.928Z,89.10
2022-08-12T00:04:35.967Z,88.90
2022-08-12T00:07:19.333Z,89.80
2022-08-12T00:10:02.110Z,89.10
2022-08-12T00:12:44.941Z,90.90
2022-08-12T00:15:32.155Z,90.20
2022-08-12T00:18:15.032Z,90.00
2022-08-12T00:21:00.775Z,91.70
2022-08-12T00:23:43.536Z,91.30
2022-08-12T00:26:29.728Z,92.10
2022-08-12T00:29:12.449Z,92.30
2022-08-12T00:31:55.557Z,91.90
2022-08-12T00:34:38.325Z,93.00
2022-08-12T00:37:23.692Z,92.70
2022-08-12T00:40:10.814Z,92.10
2022-08-12T00:42:43.904Z,92.40
2022-08-12T00:45:14.307Z,92.20
2022-08-12T00:47:45.545Z,92.30
2022-08-12T00:50:20.606Z,92.40
2022-08-12T00:52:56.038Z,92.60
2022-08-12T00:55:26.466Z,94.10
2022-08-12T00:57:56.912Z,93.20
2022-08-12T01:00:28.840Z,93.00
2022-08-12T01:02:59.514Z,93.60
2022-08-12T01:05:42.539Z,95.20
2022-08-12T01:08:43.086Z,94.00
2022-08-12T01:11:28.258Z,93.40
2022-08-12T01:14:02.136Z,94.00
2022-08-12T01:16:32.732Z,94.70
2022-08-12T01:19:04.570Z,94.80
2022-08-12T01:22:19.377Z,94.90
2022-08-12T01:25:12.917Z,94.40
2022-08-12T01:27:44.407Z,94.70
2022-08-12T01:30:16.740Z,94.50
2022-08-12T01:32:51.401Z,95.00
2022-08-12T01:35:21.963Z,95.00
2022-08-12T01:38:02.817Z,95.00
2022-08-12T01:40:42.518Z,95.20
2022-08-12T01:43:22.810Z,96.50
2022-08-12T01:46:14.802Z,95.80
2022-08-12T01:49:07.620Z,95.90
2022-08-12T01:52:16.074Z,96.30
2022-08-12T01:54:39.543Z,96.50
2022-08-12T01:57:58.670Z,96.60
2022-08-12T02:00:15.162Z,96.70
2022-08-12T02:02:49.178Z,97.80
2022-08-12T02:05:46.690Z,97.30
2022-08-12T02:08:46.121Z,97.60
2022-08-12T02:11:24.179Z,98.30
2022-08-12T02:14:34.556Z,98.40
2022-08-12T02:17:55.716Z,99.90
2022-08-12T02:20:35.168Z,99.90
2022-08-12T02:23:27.232Z,99.90
2022-08-12T02:26:02.401Z,99.80
2022-08-12T02:28:33.837Z,99.80
2022-08-12T02:31:11.163Z,99.90
2022-08-12T02:33:42.319Z,99.90
2022-08-12T02:36:13.161Z,99.90
2022-08-12T02:38:46.212Z,99.90
2022-08-12T02:41:19.860Z,99.90
2022-08-12T02:43:54.925Z,99.90
2022-08-12T02:46:34.529Z,99.90
2022-08-12T02:49:14.885Z,99.90
2022-08-12T02:51:47.236Z,99.90
2022-08-12T02:54:17.876Z,99.90
2022-08-12T02:56:51.079Z,99.90
2022-08-12T02:59:26.437Z,99.90
2022-08-12T03:02:03.897Z,99.90
2022-08-12T03:04:43.646Z,99.90
2022-08-12T03:07:21.171Z,99.90
2022-08-12T03:10:04.848Z,99.90
2022-08-12T03:12:49.396Z,99.90
2022-08-12T03:15:24.874Z,99.90
2022-08-12T03:18:24.741Z,99.90
2022-08-12T03:20:59.729Z,99.90
2022-08-12T03:23:32.668Z,99.90
2022-08-12T03:26:05.832Z,99.90
2022-08-12T03:28:51.665Z,99.90
2022-08-12T03:31:25.127Z,99.90
2022-08-12T03:34:03.502Z,99.90
2022-08-12T03:36:36.795Z,99.90
2022-08-12T03:39:36.599Z,99.90
2022-08-12T03:42:22.643Z,99.90
2022-08-12T03:45:16.721Z,99.90
2022-08-12T03:48:07.756Z,99.90
2022-08-12T03:50:53.558Z,99.90
2022-08-12T03:53:42.590Z,99.90
2022-08-12T03:56:25.557Z,99.90
2022-08-12T03:59:10.955Z,99.90
2022-08-12T04:01:43.404Z,99.90
2022-08-12T04:04:16.999Z,99.90
2022-08-12T04:06:50.146Z,99.90
2022-08-12T04:09:24.245Z,99.90
2022-08-12T04:12:07.279Z,99.90
2022-08-12T04:14:38.724Z,99.90
2022-08-12T04:17:09.700Z,99.90
2022-08-12T04:19:40.636Z,99.90
2022-08-12T04:22:13.705Z,99.90
2022-08-12T04:24:47.705Z,99.90
2022-08-12T04:27:21.141Z,99.90
2022-08-12T04:30:30.099Z,99.90
2022-08-12T04:32:44.564Z,99.90
2022-08-12T04:35:16.166Z,99.90
2022-08-12T04:37:57.947Z,99.90
2022-08-12T04:40:33.924Z,99.90
2022-08-12T04:43:04.938Z,99.90
2022-08-12T04:45:37.715Z,99.90
2022-08-12T04:48:09.122Z,99.90
2022-08-12T04:50:39.426Z,99.90
2022-08-12T04:53:13.234Z,99.90
2022-08-12T04:55:46.851Z,99.90
2022-08-12T04:58:29.312Z,99.90
2022-08-12T05:01:01.220Z,99.90
2022-08-12T05:03:46.664Z,99.90
2022-08-12T05:06:27.102Z,99.90
2022-08-12T05:09:02.149Z,99.90
2022-08-12T05:11:54.102Z,99.90
2022-08-12T05:14:25.302Z,99.90
2022-08-12T05:16:55.666Z,99.90
2022-08-12T05:19:26.933Z,99.90
2022-08-12T05:21:57.329Z,99.90
2022-08-12T05:24:30.566Z,99.90
2022-08-12T05:27:00.964Z,99.90
2022-08-12T05:30:06.468Z,99.90
2022-08-12T05:32:26.337Z,99.90
2022-08-12T05:34:56.743Z,99.90
2022-08-12T05:37:27.332Z,99.90
2022-08-12T05:40:00.725Z,99.00
2022-08-12T05:42:41.140Z,99.10
2022-08-12T05:45:13.847Z,99.20
2022-08-12T05:47:54.010Z,99.10
2022-08-12T05:50:25.878Z,97.80
2022-08-12T05:52:57.313Z,97.20
2022-08-12T05:55:31.721Z,96.90
2022-08-12T05:58:03.257Z,96.60
2022-08-12T06:00:34.654Z,96.00
2022-08-12T06:03:07.161Z,95.60
2022-08-12T06:05:54.299Z,95.70
2022-08-12T06:08:26.669Z,95.30
2022-08-12T06:11:01.996Z,94.30
2022-08-12T06:13:52.851Z,94.50
2022-08-12T06:16:27.496Z,94.10
2022-08-12T06:18:57.967Z,94.20
2022-08-12T06:21:28.826Z,93.60
2022-08-12T06:23:59.193Z,93.60
2022-08-12T06:26:34.701Z,93.00
2022-08-12T06:29:05.346Z,92.70
2022-08-12T06:31:35.685Z,92.70
2022-08-12T06:35:25.702Z,91.60
2022-08-12T06:36:56.550Z,90.70
2022-08-12T06:39:27.139Z,91.00
2022-08-12T06:42:42.234Z,91.30
2022-08-12T06:45:02.810Z,89.20
2022-08-12T06:47:33.240Z,90.00
2022-08-12T06:50:04.107Z,88.30
2022-08-12T06:52:34.455Z,85.70
2022-08-12T06:55:04.831Z,86.30
2022-08-12T06:58:05.663Z,85.30
2022-08-12T07:00:39.268Z,83.90
2022-08-12T07:03:22.741Z,82.50
2022-08-12T07:05:53.967Z,83.80
2022-08-12T07:08:26.917Z,82.20
2022-08-12T07:11:00.300Z,82.40
2022-08-12T07:13:36.085Z,80.80
2022-08-12T07:16:27.084Z,79.60
2022-08-12T07:18:59.198Z,78.40
2022-08-12T07:22:00.035Z,76.80
2022-08-12T07:24:24.565Z,77.30
2022-08-12T07:26:55.876Z,78.00
2022-08-12T07:30:02.578Z,76.20
2022-08-12T07:32:23.827Z,77.00
2022-08-12T07:34:54.820Z,75.70
2022-08-12T07:37:25.200Z,75.40
2022-08-12T07:40:00.330Z,76.00
2022-08-12T07:42:32.462Z,75.20
2022-08-12T07:45:07.516Z,74.30
2022-08-12T07:47:38.115Z,73.80
2022-08-12T07:50:10.904Z,73.30
2022-08-12T07:52:44.059Z,72.40
2022-08-12T07:55:19.318Z,73.20
2022-08-12T07:57:58.055Z,71.70
2022-08-12T08:00:34.420Z,72.80
2022-08-12T08:03:05.182Z,71.70
2022-08-12T08:05:40.201Z,72.80
2022-08-12T08:08:18.196Z,71.30
2022-08-12T08:10:49.240Z,71.40
2022-08-12T08:13:17.647Z,69.80
2022-08-12T08:16:03.535Z,69.00
2022-08-12T08:18:34.362Z,69.10
2022-08-12T08:21:04.765Z,68.30
2022-08-12T08:23:56.329Z,68.70
2022-08-12T08:26:28.567Z,68.30
2022-08-12T08:28:59.760Z,67.90
2022-08-12T08:31:32.853Z,68.20
2022-08-12T08:34:27.725Z,68.50
2022-08-12T08:36:54.280Z,67.90
2022-08-12T08:39:28.133Z,66.90
2022-08-12T08:42:19.188Z,66.90
2022-08-12T08:44:58.134Z,67.80
2022-08-12T08:47:31.516Z,66.60
2022-08-12T08:50:03.378Z,66.80
2022-08-12T08:52:40.276Z,66.60
2022-08-12T08:55:14.145Z,66.30
2022-08-12T08:57:47.792Z,65.40
2022-08-12T09:00:19.932Z,66.70
2022-08-12T09:02:58.570Z,64.90
2022-08-12T09:06:01.686Z,65.60
2022-08-12T09:12:11.504Z,64.60
2022-08-12T09:14:31.405Z,64.70
2022-08-12T09:17:03.093Z,63.80
2022-08-12T09:19:37.341Z,64.80
2022-08-12T09:22:11.060Z,62.40
2022-08-12T09:24:48.864Z,63.70
2022-08-12T09:27:23.416Z,63.80
2022-08-12T09:30:16.237Z,64.20
2022-08-12T09:33:04.520Z,62.80
2022-08-12T09:35:44.474Z,64.30
2022-08-12T09:38:28.393Z,64.30
2022-08-12T09:42:34.137Z,62.90
2022-08-12T09:44:05.521Z,63.10
2022-08-12T09:46:36.637Z,62.30
2022-08-12T09:49:16.244Z,62.50
2022-08-12T09:51:50.494Z,61.30
2022-08-12T09:54:33.597Z,62.80
2022-08-12T09:58:46.158Z,62.00
2022-08-12T10:00:15.194Z,61.60
2022-08-12T10:03:05.961Z,61.70
2022-08-12T10:06:19.559Z,62.50
2022-08-12T10:08:39.164Z,61.60
2022-08-12T10:11:23.274Z,61.40
2022-08-12T10:13:57.308Z,60.80
2022-08-12T10:16:38.739Z,60.60
2022-08-12T10:19:17.199Z,61.60
2022-08-12T10:21:48.508Z,60.60
2022-08-12T10:24:30.198Z,61.90
2022-08-12T10:27:14.372Z,60.50
2022-08-12T10:30:03.017Z,59.80
2022-08-12T10:32:44.312Z,60.70
2022-08-12T10:35:18.506Z,60.00
2022-08-12T10:38:38.403Z,59.70
2022-08-12T10:41:04.054Z,59.30
2022-08-12T10:43:54.527Z,59.50
2022-08-12T10:46:31.165Z,59.40
2022-08-12T10:49:06.840Z,60.40
2022-08-12T10:52:32.601Z,61.10
2022-08-12T10:54:49.300Z,61.40
2022-08-12T10:58:15.560Z,60.40
2022-08-12T11:00:33.788Z,60.80
2022-08-12T11:04:19.382Z,60.60
2022-08-12T11:07:06.015Z,63.10
2022-08-12T11:08:51.276Z,59.90
2022-08-12T11:12:08.492Z,59.80
2022-08-12T11:14:49.288Z,59.70
2022-08-12T11:17:43.515Z,59.60
2022-08-12T11:20:14.909Z,59.20
2022-08-12T11:22:49.406Z,59.80
2022-08-12T11:25:55.677Z,59.80
2022-08-12T11:28:33.498Z,59.90
2022-08-12T11:31:12.326Z,59.60
2022-08-12T11:34:05.327Z,58.50
2022-08-12T11:36:39.118Z,58.30
2022-08-12T11:39:12.418Z,59.10
2022-08-12T11:41:43.218Z,59.00
2022-08-12T11:44:37.098Z,59.00
2022-08-12T11:47:10.831Z,61.10
2022-08-12T11:49:41.372Z,58.90
2022-08-12T11:52:51.375Z,59.20
2022-08-12T11:55:14.805Z,59.60
2022-08-12T11:58:17.295Z,59.50
2022-08-12T12:03:44.241Z,59.20
2022-08-12T12:06:18.072Z,58.90
2022-08-12T12:08:52.966Z,59.30
2022-08-12T12:11:25.335Z,59.10
2022-08-12T12:14:06.630Z,58.60
2022-08-12T12:16:40.033Z,59.30
2022-08-12T12:19:15.206Z,57.70
2022-08-12T12:21:47.508Z,60.10
2022-08-12T12:24:22.467Z,59.30
2022-08-12T12:26:59.530Z,58.20
2022-08-12T12:30:17.928Z,59.90
2022-08-12T12:32:28.829Z,58.60
2022-08-12T12:35:13.890Z,57.80
2022-08-12T12:38:05.539Z,58.50
2022-08-12T12:40:46.197Z,59.00
2022-08-12T12:43:29.081Z,59.30
2022-08-12T12:46:12.465Z,59.70
2022-08-12T12:48:44.678Z,59.70
2022-08-12T12:51:48.142Z,59.90
2022-08-12T12:54:11.461Z,59.00
2022-08-12T12:56:47.976Z,59.90
2022-08-12T12:59:54.996Z,59.40
2022-08-12T13:02:11.214Z,60.20
2022-08-12T13:04:41.936Z,59.80
2022-08-12T13:07:19.202Z,59.70
2022-08-12T13:09:49.972Z,59.80
2022-08-12T13:12:20.716Z,60.40
2022-08-12T13:14:51.674Z,59.80
2022-08-12T13:17:22.141Z,59.70
2022-08-12T13:19:55.627Z,60.10
2022-08-12T13:22:30.378Z,59.50
2022-08-12T13:25:01.966Z,59.20
2022-08-12T13:27:42.604Z,58.20
2022-08-12T13:30:24.803Z,59.00
2022-08-12T13:32:59.020Z,58.20
2022-08-12T13:36:02.912Z,58.30
2022-08-12T13:38:34.244Z,57.90
2022-08-12T13:41:11.752Z,58.80
2022-08-12T13:43:42.444Z,59.00
2022-08-12T13:46:17.817Z,58.60
2022-08-12T13:48:48.697Z,58.10
2022-08-12T13:51:24.205Z,58.70
2022-08-12T13:54:04.158Z,58.50
2022-08-12T13:56:38.543Z,58.50
2022-08-12T13:59:11.557Z,59.00
2022-08-12T14:01:42.397Z,58.50
2022-08-12T14:04:13.395Z,59.00
2022-08-12T14:06:44.942Z,58.50
2022-08-12T14:09:19.980Z,59.00
2022-08-12T14:11:59.454Z,59.30
2022-08-12T14:14:35.764Z,58.20
2022-08-12T14:17:10.417Z,58.40
2022-08-12T14:20:01.378Z,58.80
2022-08-12T14:22:32.195Z,58.70
2022-08-12T14:25:06.297Z,58.50
2022-08-12T14:28:03.732Z,58.40
2022-08-12T14:30:29.375Z,58.20
2022-08-12T14:33:03.038Z,58.70
2022-08-12T14:35:41.363Z,58.50
2022-08-12T14:38:26.156Z,58.00
2022-08-12T14:41:01.841Z,58.00
2022-08-12T14:43:58.939Z,58.00
2022-08-12T14:46:28.016Z,58.60
2022-08-12T14:48:58.523Z,57.60
2022-08-12T14:52:44.083Z,57.80
2022-08-12T14:57:44.897Z,57.80
2022-08-12T15:00:29.881Z,58.00
2022-08-12T15:03:00.292Z,57.30
2022-08-12T15:06:06.122Z,57.60
2022-08-12T15:08:33.575Z,57.50
2022-08-12T15:11:05.664Z,57.80
2022-08-12T15:13:45.723Z,57.80
2022-08-12T15:16:18.667Z,58.10
2022-08-12T15:18:55.030Z,57.60
2022-08-12T15:22:36.795Z,57.70
2022-08-12T15:24:20.532Z,58.60
2022-08-12T15:26:51.613Z,59.10
2022-08-12T15:29:26.417Z,58.40
2022-08-12T15:32:02.002Z,59.70
2022-08-12T15:34:38.961Z,60.00
2022-08-12T15:37:09.368Z,59.60
2022-08-12T15:39:39.852Z,59.20
2022-08-12T15:42:30.038Z,60.30
2022-08-12T15:45:03.422Z,60.70
2022-08-12T15:47:49.541Z,61.00
2022-08-12T15:50:26.371Z,60.60
2022-08-12T15:52:58.844Z,60.50
2022-08-12T15:55:46.235Z,60.10
2022-08-12T15:58:17.495Z,60.60
2022-08-12T16:00:52.789Z,61.20
2022-08-12T16:03:45.342Z,60.70
2022-08-12T16:06:36.289Z,59.80
2022-08-12T16:09:21.618Z,59.40
2022-08-12T16:11:52.339Z,60.80
2022-08-12T16:14:22.696Z,60.70
2022-08-12T16:16:57.901Z,61.20
2022-08-12T16:20:04.068Z,60.30
2022-08-12T16:22:21.486Z,60.30
2022-08-12T16:24:56.215Z,62.30
2022-08-12T16:27:29.813Z,61.20
2022-08-12T16:30:10.913Z,62.30
2022-08-12T16:32:46.466Z,62.30
2022-08-12T16:35:24.286Z,62.10
2022-08-12T16:38:28.234Z,62.20
2022-08-12T16:40:54.434Z,63.20
2022-08-12T16:43:28.153Z,61.70
2022-08-12T16:46:05.661Z,62.00
2022-08-12T16:48:55.860Z,62.40
2022-08-12T16:51:26.827Z,62.10
2022-08-12T16:53:57.436Z,61.50
2022-08-12T16:56:31.988Z,62.00
2022-08-12T16:59:02.851Z,61.80
2022-08-12T17:01:46.456Z,61.70
2022-08-12T17:04:20.342Z,61.50
2022-08-12T17:06:55.083Z,61.80
2022-08-12T17:09:26.310Z,62.20
2022-08-12T17:12:11.617Z,61.70
2022-08-12T17:14:42.439Z,62.20
2022-08-12T17:17:26.345Z,62.80
2022-08-12T17:20:34.599Z,63.30
2022-08-12T17:23:09.769Z,62.80
2022-08-12T17:25:48.328Z,63.50
2022-08-12T17:28:20.331Z,62.90
2022-08-12T17:30:59.573Z,63.20
2022-08-12T17:33:33.275Z,63.90
2022-08-12T17:36:10.639Z,64.30
2022-08-12T17:38:41.709Z,63.80
2022-08-12T17:41:22.732Z,63.50
2022-08-12T17:43:58.307Z,63.60
2022-08-12T17:46:33.570Z,64.40
2022-08-12T17:49:06.533Z,64.30
2022-08-12T17:52:02.217Z,64.30
2022-08-12T17:54:34.677Z,64.50
2022-08-12T17:57:16.142Z,64.60
2022-08-12T17:59:49.540Z,64.90
2022-08-12T18:02:29.772Z,64.60
2022-08-12T18:05:10.040Z,64.90
2022-08-12T18:07:44.906Z,65.20
2022-08-12T18:10:42.996Z,65.40
2022-08-12T18:13:12.911Z,66.10
2022-08-12T18:16:06.740Z,66.90
2022-08-12T18:18:39.334Z,66.10
2022-08-12T18:21:12.379Z,67.50
2022-08-12T18:23:53.603Z,67.40
2022-08-12T18:26:27.265Z,67.60
2022-08-12T18:28:59.015Z,67.20
2022-08-12T18:31:44.530Z,67.10
2022-08-12T18:34:24.725Z,67.90
2022-08-12T18:36:59.749Z,68.30
2022-08-12T18:40:06.079Z,69.50
2022-08-12T18:42:36.475Z,69.50
2022-08-12T18:45:12.109Z,70.30
2022-08-12T18:47:49.871Z,69.10
2022-08-12T18:50:24.755Z,68.70
2022-08-12T18:52:56.875Z,69.00
2022-08-12T18:55:37.441Z,69.20
2022-08-12T18:58:10.103Z,70.80
2022-08-12T19:00:43.296Z,72.20
2022-08-12T19:03:38.616Z,72.20
2022-08-12T19:06:09.142Z,73.30
2022-08-12T19:08:49.495Z,71.30
2022-08-12T19:11:36.191Z,71.70
2022-08-12T19:14:20.697Z,71.80
2022-08-12T19:16:52.757Z,72.20
2022-08-12T19:19:23.220Z,72.10
2022-08-12T19:21:57.004Z,72.70
2022-08-12T19:24:41.799Z,72.90
2022-08-12T19:27:15.957Z,73.80
2022-08-12T19:30:06.535Z,73.90
2022-08-12T19:32:37.939Z,73.70
2022-08-12T19:38:07.286Z,74.20
2022-08-12T19:40:39.558Z,73.80
2022-08-12T19:43:20.961Z,75.30
2022-08-12T19:45:56.659Z,74.10
2022-08-12T19:48:32.635Z,75.50
2022-08-12T19:51:09.293Z,76.60
2022-08-12T19:53:58.078Z,77.00
2022-08-12T19:56:30.311Z,76.80
2022-08-12T19:59:18.679Z,75.10
2022-08-12T20:02:02.871Z,74.70
2022-08-12T20:04:37.731Z,76.90
2022-08-12T20:07:12.605Z,78.00
2022-08-12T20:09:56.929Z,77.50
2022-08-12T20:12:32.619Z,76.80
2022-08-12T20:15:11.233Z,77.20
2022-08-12T20:17:50.738Z,76.80
2022-08-12T20:20:27.794Z,76.80
2022-08-12T20:22:58.910Z,78.10
2022-08-12T20:25:52.682Z,78.00
2022-08-12T20:28:21.652Z,78.30
2022-08-12T20:31:00.011Z,79.70
2022-08-12T20:33:50.200Z,79.60
2022-08-12T20:36:41.552Z,80.10
2022-08-12T20:39:33.955Z,79.50
2022-08-12T20:42:07.823Z,79.70
2022-08-12T20:44:40.594Z,77.50
2022-08-12T20:47:19.627Z,77.30
2022-08-12T20:49:54.821Z,77.60
2022-08-12T20:52:30.220Z,77.90
2022-08-12T20:55:00.767Z,77.50
2022-08-12T20:57:38.272Z,77.80
2022-08-12T21:00:28.469Z,78.20
2022-08-12T21:03:21.649Z,78.10
2022-08-12T21:06:13.047Z,78.20
2022-08-12T21:08:44.374Z,78.30
2022-08-12T21:11:15.067Z,78.70
2022-08-12T21:13:47.216Z,78.70
2022-08-12T21:16:31.497Z,78.70
2022-08-12T21:19:11.820Z,79.00
2022-08-12T21:21:58.845Z,79.10
2022-08-12T21:24:32.301Z,79.60
2022-08-12T21:27:07.379Z,81.40
2022-08-12T21:29:40.100Z,80.30
2022-08-12T21:32:36.839Z,80.40
2022-08-12T21:35:19.042Z,81.70
2022-08-12T21:37:53.314Z,81.10
2022-08-12T21:40:37.419Z,80.20
2022-08-12T21:43:15.953Z,79.80
2022-08-12T21:46:00.909Z,79.50
2022-08-12T21:48:32.015Z,79.50
2022-08-12T21:51:22.588Z,79.40
2022-08-12T21:54:07.507Z,79.40
2022-08-12T21:56:41.168Z,79.20
2022-08-12T21:59:14.541Z,79.40
2022-08-12T22:01:48.994Z,80.00
2022-08-12T22:04:33.522Z,80.10
2022-08-12T22:07:07.971Z,80.60
2022-08-12T22:09:43.235Z,80.70
2022-08-12T22:12:26.832Z,80.60
2022-08-12T22:14:57.606Z,80.90
2022-08-12T22:17:49.907Z,81.10
2022-08-12T22:20:29.442Z,81.10
2022-08-12T22:23:05.405Z,81.30
2022-08-12T22:25:40.058Z,84.20
2022-08-12T22:28:24.639Z,81.50
2022-08-12T22:31:07.584Z,81.80
2022-08-12T22:33:53.907Z,81.90
2022-08-12T22:36:29.320Z,82.00
2022-08-12T22:39:02.732Z,82.30
2022-08-12T22:41:45.746Z,82.20
2022-08-12T22:44:28.450Z,82.40
2022-08-12T22:47:12.218Z,82.50
2022-08-12T22:49:53.611Z,82.90
2022-08-12T22:52:30.748Z,83.60
2022-08-12T22:55:06.383Z,83.60
2022-08-12T22:57:49.737Z,84.20
2022-08-12T23:00:27.916Z,84.60
2022-08-12T23:03:02.775Z,84.70
2022-08-12T23:06:09.624Z,84.60
2022-08-12T23:08:32.068Z,84.80
2022-08-12T23:11:08.505Z,85.70
2022-08-12T23:13:57.173Z,88.50
2022-08-12T23:16:33.383Z,86.80
2022-08-12T23:19:11.071Z,86.90
2022-08-12T23:22:05.858Z,86.00
2022-08-12T23:24:56.093Z,85.70
2022-08-12T23:27:50.255Z,86.20
2022-08-12T23:30:25.079Z,86.20
2022-08-12T23:33:01.919Z,86.00
2022-08-12T23:35:45.844Z,86.90
2022-08-12T23:38:30.888Z,86.70
2022-08-12T23:41:03.899Z,86.70
2022-08-12T23:43:43.407Z,86.80
2022-08-12T23:46:22.605Z,86.60
2022-08-12T23:49:01.025Z,86.80
2022-08-12T23:51:32.294Z,87.30
2022-08-12T23:54:10.160Z,87.40
2022-08-12T23:56:48.808Z,88.40
2022-08-12T23:59:22.885Z,87.80
